Time;durP1;ratioP1;P1;durP2;ratioP2;P2;SDS_P1;SDS_P2;PMS_P1;PMS_P2;Temp;Humidity;BMP_temperature;BMP_pressure;BME280_temperature;BME280_humidity;BME280_pressure;Samples;Min_cycle;Max_cycle;Signal;HPM_P1;HPM_P2
2022/03/24 00:02:02;;;;;;;12.38;8.48;;;5.80;99.90;;;;;;5131902;27;20059;-68
2022/03/24 00:04:27;;;;;;;11.80;8.45;;;5.80;99.90;;;;;;5113730;27;20031;-69
2022/03/24 00:06:53;;;;;;;10.40;7.85;;;5.80;99.90;;;;;;5104549;27;20062;-68
2022/03/24 00:09:18;;;;;;;10.93;7.78;;;5.80;99.90;;;;;;5095500;27;20038;-69
2022/03/24 00:11:44;;;;;;;11.30;7.82;;;5.70;99.90;;;;;;5095256;27;20453;-68
2022/03/24 00:14:10;;;;;;;10.57;7.78;;;5.70;99.90;;;;;;5111686;27;20039;-69
2022/03/24 00:16:35;;;;;;;7.90;5.97;;;5.60;99.90;;;;;;5112910;27;20035;-69
2022/03/24 00:19:01;;;;;;;9.90;6.60;;;5.50;99.90;;;;;;5113619;27;20112;-70
2022/03/24 00:21:27;;;;;;;8.18;5.68;;;5.50;99.90;;;;;;5113896;27;20081;-69
2022/03/24 00:23:53;;;;;;;6.97;5.25;;;5.40;99.90;;;;;;5096331;27;20073;-69
2022/03/24 00:26:18;;;;;;;8.15;5.70;;;5.40;99.90;;;;;;5096962;27;20062;-69
2022/03/24 00:28:45;;;;;;;8.95;6.10;;;5.30;99.90;;;;;;5113592;27;20074;-69
2022/03/24 00:31:11;;;;;;;9.05;6.45;;;5.30;99.90;;;;;;5113256;27;20043;-69
2022/03/24 00:33:38;;;;;;;9.13;6.80;;;5.30;99.90;;;;;;5109339;27;20485;-68
2022/03/24 00:36:05;;;;;;;10.98;7.18;;;5.20;99.90;;;;;;5096722;27;20073;-69
2022/03/24 00:38:31;;;;;;;12.82;8.80;;;5.20;99.90;;;;;;5113150;27;20498;-69
2022/03/24 00:40:57;;;;;;;12.93;8.75;;;5.20;99.90;;;;;;5110094;27;20057;-69
2022/03/24 00:43:23;;;;;;;12.80;9.10;;;5.20;99.90;;;;;;5112818;27;20149;-68
2022/03/24 00:45:51;;;;;;;15.93;10.85;;;5.20;99.90;;;;;;5109808;27;20372;-68
2022/03/24 00:48:17;;;;;;;18.90;12.40;;;5.20;99.90;;;;;;5109953;27;20039;-69
2022/03/24 00:50:44;;;;;;;;;;;5.10;99.90;;;;;;5113357;27;20055;-69
2022/03/24 00:53:10;;;;;;;18.20;13.15;;;5.00;99.90;;;;;;5113387;27;19923;-70
2022/03/24 00:55:36;;;;;;;;;;;5.00;99.90;;;;;;5104808;27;20061;-70
2022/03/24 00:58:01;;;;;;;19.67;12.43;;;5.10;99.90;;;;;;5113379;27;20370;-70
2022/03/24 01:00:28;;;;;;;17.08;11.48;;;5.00;99.90;;;;;;5110679;27;20051;-69
2022/03/24 01:02:54;;;;;;;15.00;10.70;;;5.00;99.90;;;;;;5111668;27;20508;-69
2022/03/24 01:05:27;;;;;;;17.90;12.75;;;5.00;99.90;;;;;;5111542;27;20046;-68
2022/03/24 01:07:54;;;;;;;22.92;16.00;;;4.90;99.90;;;;;;5112032;27;20047;-69
2022/03/24 01:10:21;;;;;;;24.50;15.90;;;5.10;99.90;;;;;;5113024;27;20104;-69
2022/03/24 01:12:48;;;;;;;21.58;14.57;;;5.10;99.90;;;;;;5112286;27;20035;-68
2022/03/24 01:15:18;;;;;;;19.42;13.23;;;5.10;99.90;;;;;;5110729;27;20058;-69
2022/03/24 01:17:44;;;;;;;19.17;13.02;;;5.10;99.90;;;;;;5112131;27;20043;-69
2022/03/24 01:20:12;;;;;;;18.25;12.98;;;5.20;99.90;;;;;;5112293;27;20096;-68
2022/03/24 01:22:38;;;;;;;18.33;12.10;;;5.10;99.90;;;;;;5095003;27;20068;-69
2022/03/24 01:25:06;;;;;;;;;;;5.10;99.90;;;;;;5112879;27;20118;-69
2022/03/24 01:27:33;;;;;;;14.00;9.20;;;5.00;99.90;;;;;;5111450;27;19954;-70
2022/03/24 01:29:59;;;;;;;;;;;5.00;99.90;;;;;;5112812;27;20039;-69
2022/03/24 01:32:26;;;;;;;12.25;8.65;;;4.90;99.90;;;;;;5111893;27;19984;-68
2022/03/24 01:34:52;;;;;;;12.95;8.82;;;4.80;99.90;;;;;;5112415;28;20078;-69
2022/03/24 01:37:18;;;;;;;12.15;8.00;;;4.80;99.90;;;;;;5112253;28;20536;-69
2022/03/24 01:39:44;;;;;;;10.98;8.00;;;4.80;99.90;;;;;;5109685;28;20114;-69
2022/03/24 01:42:10;;;;;;;9.00;6.40;;;4.70;99.90;;;;;;5112329;28;20152;-70
2022/03/24 01:44:35;;;;;;;9.85;6.88;;;4.60;99.90;;;;;;5112202;28;20039;-69
2022/03/24 01:47:07;;;;;;;10.82;7.53;;;4.60;99.90;;;;;;5095675;28;20050;-69
2022/03/24 01:49:38;;;;;;;11.90;8.25;;;4.60;99.90;;;;;;5112527;28;20042;-69
2022/03/24 01:52:08;;;;;;;11.75;7.72;;;4.60;99.90;;;;;;5112558;28;20043;-69
2022/03/24 01:54:36;;;;;;;16.02;10.43;;;4.50;99.90;;;;;;5111531;28;20047;-69
2022/03/24 01:57:03;;;;;;;18.23;11.90;;;4.60;99.90;;;;;;5112383;28;20122;-69
2022/03/24 01:59:29;;;;;;;15.30;10.65;;;4.60;99.90;;;;;;5112480;28;20039;-69
2022/03/24 02:01:55;;;;;;;14.13;10.00;;;4.60;99.90;;;;;;5108246;28;20046;-69
2022/03/24 02:04:21;;;;;;;16.65;11.95;;;4.50;99.90;;;;;;5107750;28;20139;-69
2022/03/24 02:06:47;;;;;;;14.85;9.80;;;4.40;99.90;;;;;;5108324;28;20047;-69
2022/03/24 02:09:14;;;;;;;14.00;9.55;;;4.30;99.90;;;;;;5091087;28;20052;-69
2022/03/24 02:11:39;;;;;;;;;;;4.30;99.90;;;;;;5109079;28;20426;-69
2022/03/24 02:14:06;;;;;;;10.60;7.70;;;4.20;99.90;;;;;;5107964;28;19916;-69
2022/03/24 02:16:38;;;;;;;;;;;4.20;99.90;;;;;;5108938;28;20047;-69
2022/03/24 02:19:18;;;;;;;13.15;8.52;;;4.20;99.90;;;;;;5091223;28;19999;-69
2022/03/24 02:21:45;;;;;;;14.25;8.80;;;4.20;99.90;;;;;;5103903;28;20123;-69
2022/03/24 02:24:12;;;;;;;;;;;4.20;99.90;;;;;;5108028;28;20047;-69
2022/03/24 02:26:40;;;;;;;10.80;7.60;;;4.10;99.90;;;;;;5090474;28;19924;-70
2022/03/24 02:29:06;;;;;;;10.40;7.10;;;4.10;99.90;;;;;;5125443;28;20036;-68
2022/03/24 02:31:37;;;;;;;12.55;8.35;;;4.10;99.90;;;;;;5089745;28;20800;-69
2022/03/24 02:36:48;;;;;;;19.80;13.73;;;4.20;99.90;;;;;;5108202;28;20039;-68
2022/03/24 02:39:14;;;;;;;18.27;11.77;;;4.30;99.90;;;;;;5111079;28;20048;-69
2022/03/24 02:41:50;;;;;;;15.85;10.10;;;4.20;99.90;;;;;;5112056;28;20474;-70
2022/03/24 02:44:17;;;;;;;12.20;7.93;;;4.30;99.90;;;;;;5112007;28;20041;-69
2022/03/24 02:46:47;;;;;;;11.25;7.53;;;4.20;99.90;;;;;;5110375;28;20482;-69
2022/03/24 02:49:17;;;;;;;12.10;8.13;;;4.20;99.90;;;;;;5090217;28;20062;-68
2022/03/24 02:51:44;;;;;;;12.68;8.15;;;4.10;99.90;;;;;;5111161;28;20881;-69
2022/03/24 02:54:11;;;;;;;12.75;7.85;;;4.00;99.90;;;;;;5111306;28;20702;-69
2022/03/24 02:56:38;;;;;;;11.77;7.53;;;3.90;99.90;;;;;;5111444;28;20123;-69
2022/03/24 02:59:05;;;;;;;10.40;7.18;;;3.90;99.90;;;;;;5111657;28;20074;-69
2022/03/24 03:01:33;;;;;;;12.85;8.27;;;3.80;99.90;;;;;;5108846;28;20471;-69
2022/03/24 03:03:59;;;;;;;14.57;9.68;;;3.80;99.90;;;;;;5110347;28;20514;-69
2022/03/24 03:06:25;;;;;;;16.02;10.18;;;3.80;99.90;;;;;;5111516;28;20045;-69
2022/03/24 03:08:51;;;;;;;16.02;9.63;;;3.90;99.90;;;;;;5075027;28;20473;-68
2022/03/24 03:11:20;;;;;;;14.95;9.05;;;3.90;99.90;;;;;;5111580;28;20046;-67
2022/03/24 03:13:47;;;;;;;11.98;8.52;;;3.80;99.90;;;;;;5094369;28;20553;-69
2022/03/24 03:16:13;;;;;;;;;;;3.70;99.90;;;;;;5109589;28;20067;-69
2022/03/24 03:18:43;;;;;;;14.52;8.98;;;3.70;99.90;;;;;;5094536;28;19971;-70
2022/03/24 03:21:09;;;;;;;12.63;8.52;;;3.70;99.90;;;;;;5110345;28;20048;-68
2022/03/24 03:23:38;;;;;;;11.68;7.68;;;3.70;99.90;;;;;;5111039;28;20061;-68
2022/03/24 03:26:08;;;;;;;9.45;6.60;;;3.60;99.90;;;;;;5108907;28;20443;-69
2022/03/24 03:28:34;;;;;;;9.88;6.82;;;3.60;99.90;;;;;;5109572;28;20471;-69
2022/03/24 03:31:01;;;;;;;10.25;6.72;;;3.60;99.90;;;;;;5090470;28;20080;-69
2022/03/24 03:33:27;;;;;;;11.50;7.82;;;3.60;99.90;;;;;;5110991;28;20070;-69
2022/03/24 03:35:53;;;;;;;;;;;3.60;99.90;;;;;;5104827;28;20501;-69
2022/03/24 03:38:20;;;;;;;12.15;8.13;;;3.60;99.90;;;;;;5104771;28;19966;-70
2022/03/24 03:40:46;;;;;;;11.90;7.75;;;3.50;99.90;;;;;;5094150;28;20051;-73
2022/03/24 03:43:14;;;;;;;12.38;7.82;;;3.60;99.90;;;;;;5111710;28;20067;-69
2022/03/24 03:45:43;;;;;;;13.57;8.48;;;3.50;99.90;;;;;;5110355;28;20258;-69
2022/03/24 03:48:10;;;;;;;12.27;7.80;;;3.50;99.90;;;;;;5111208;28;20134;-69
2022/03/24 03:50:36;;;;;;;;;;;3.60;99.90;;;;;;5111415;28;20039;-69
2022/03/24 03:53:01;;;;;;;11.80;7.68;;;3.50;99.90;;;;;;5110779;28;19920;-69
2022/03/24 03:55:27;;;;;;;11.83;7.37;;;3.50;99.90;;;;;;5110804;28;20074;-69
2022/03/24 03:57:54;;;;;;;13.38;8.07;;;3.50;99.90;;;;;;5107907;28;20330;-69
2022/03/24 04:03:05;;;;;;;11.18;7.38;;;3.50;99.90;;;;;;5106799;27;20047;-69
2022/03/24 04:05:31;;;;;;;12.30;7.70;;;3.40;99.90;;;;;;5113763;27;20039;-68
2022/03/24 04:07:58;;;;;;;12.88;7.97;;;3.40;99.90;;;;;;5113746;27;20099;-68
2022/03/24 04:10:27;;;;;;;11.45;6.95;;;3.30;99.90;;;;;;5113818;27;20119;-68
2022/03/24 04:12:55;;;;;;;12.35;7.30;;;3.30;99.90;;;;;;5113792;27;20043;-69
2022/03/24 04:15:24;;;;;;;12.38;6.78;;;3.30;99.90;;;;;;5096276;27;20043;-69
2022/03/24 04:17:53;;;;;;;11.82;7.05;;;3.30;99.90;;;;;;5113469;27;20066;-68
2022/03/24 04:20:23;;;;;;;13.13;7.72;;;3.30;99.90;;;;;;5113468;27;20047;-68
2022/03/24 04:22:50;;;;;;;15.48;9.35;;;3.30;99.90;;;;;;5113433;27;20114;-68
2022/03/24 04:25:17;;;;;;;22.25;12.27;;;3.20;99.90;;;;;;5096642;27;20481;-68
2022/03/24 04:27:43;;;;;;;22.30;12.32;;;3.20;99.90;;;;;;5113504;27;20119;-69
2022/03/24 04:30:12;;;;;;;24.92;14.38;;;3.20;99.90;;;;;;5095811;27;20051;-68
2022/03/24 04:32:38;;;;;;;24.35;14.25;;;3.30;99.90;;;;;;5113317;27;20119;-68
2022/03/24 04:35:08;;;;;;;28.50;16.10;;;3.20;99.90;;;;;;5095452;27;20054;-68
2022/03/24 04:37:35;;;;;;;24.90;14.35;;;3.30;99.90;;;;;;5096122;27;20031;-68
2022/03/24 04:40:02;;;;;;;21.40;12.93;;;3.20;99.90;;;;;;5113183;27;20130;-68
2022/03/24 04:42:27;;;;;;;22.08;13.13;;;3.20;99.90;;;;;;5113483;27;20046;-68
2022/03/24 04:44:53;;;;;;;23.00;14.10;;;3.20;99.90;;;;;;5091249;28;20043;-68
2022/03/24 04:47:19;;;;;;;21.25;12.98;;;3.20;99.90;;;;;;5111091;27;20042;-69
2022/03/24 04:49:45;;;;;;;18.27;10.90;;;3.20;99.90;;;;;;5113466;27;20386;-69
2022/03/24 04:52:11;;;;;;;15.30;9.90;;;3.10;99.90;;;;;;5109868;27;20042;-69
2022/03/24 04:54:37;;;;;;;15.32;9.18;;;3.10;99.90;;;;;;5099024;27;20047;-69
2022/03/24 04:57:03;;;;;;;14.38;8.73;;;3.00;99.90;;;;;;5113836;27;20055;-72
2022/03/24 04:59:28;;;;;;;14.57;9.18;;;3.10;99.90;;;;;;5112445;27;20091;-69
2022/03/24 05:01:55;;;;;;;14.47;8.50;;;3.00;99.90;;;;;;5089957;27;20161;-70
2022/03/24 05:04:23;;;;;;;17.00;10.38;;;3.00;99.90;;;;;;5111722;27;20039;-70
2022/03/24 05:06:49;;;;;;;15.18;9.30;;;3.00;99.90;;;;;;5105846;27;20565;-69
2022/03/24 05:09:15;;;;;;;13.57;8.13;;;3.10;99.90;;;;;;5109756;28;20090;-69
2022/03/24 05:11:43;;;;;;;17.02;10.75;;;3.00;99.90;;;;;;5111989;27;20043;-69
2022/03/24 05:14:10;;;;;;;21.13;12.13;;;3.00;99.90;;;;;;5111469;27;20126;-69
2022/03/24 05:16:36;;;;;;;20.55;12.02;;;3.10;99.90;;;;;;5112623;27;20108;-69
2022/03/24 05:19:03;;;;;;;18.25;11.05;;;3.10;99.90;;;;;;5091973;28;20367;-69
2022/03/24 05:21:31;;;;;;;17.65;9.98;;;3.00;99.90;;;;;;5111553;28;20035;-69
2022/03/24 05:23:57;;;;;;;14.45;8.70;;;3.00;99.90;;;;;;5111806;27;20027;-69
2022/03/24 05:26:24;;;;;;;15.32;8.68;;;3.10;99.90;;;;;;5111515;27;20047;-69
2022/03/24 05:28:51;;;;;;;13.80;8.27;;;3.00;99.90;;;;;;5112072;28;20031;-69
2022/03/24 05:31:17;;;;;;;14.27;8.68;;;2.90;99.90;;;;;;5077413;27;20074;-69
2022/03/24 05:33:43;;;;;;;13.60;8.63;;;3.00;99.90;;;;;;5112338;28;20509;-71
2022/03/24 05:36:10;;;;;;;12.38;7.95;;;2.90;99.90;;;;;;5110254;27;20046;-69
2022/03/24 05:38:36;;;;;;;13.00;7.70;;;3.00;99.90;;;;;;5111458;28;20547;-69
2022/03/24 05:41:03;;;;;;;14.38;8.95;;;2.90;99.90;;;;;;5129601;28;20096;-69
2022/03/24 05:43:29;;;;;;;15.98;9.35;;;3.00;99.90;;;;;;5093353;28;20039;-69
2022/03/24 05:45:55;;;;;;;14.50;8.93;;;3.00;99.90;;;;;;5093802;28;20125;-69
2022/03/24 05:48:21;;;;;;;13.98;9.43;;;2.90;99.90;;;;;;5109136;28;20039;-69
2022/03/24 05:50:47;;;;;;;17.50;11.10;;;3.00;99.90;;;;;;5090245;28;20074;-69
2022/03/24 05:53:12;;;;;;;19.13;11.60;;;3.10;99.90;;;;;;5112119;28;20058;-70
2022/03/24 05:55:40;;;;;;;19.63;11.77;;;3.10;99.90;;;;;;5097528;28;20031;-70
2022/03/24 05:58:06;;;;;;;16.95;10.57;;;3.20;99.90;;;;;;5111723;28;20050;-70
2022/03/24 06:00:34;;;;;;;14.38;9.13;;;3.10;99.90;;;;;;5110916;28;20043;-69
2022/03/24 06:03:00;;;;;;;14.55;8.65;;;3.10;99.90;;;;;;5128950;28;20054;-70
2022/03/24 06:05:26;;;;;;;11.18;7.05;;;3.20;99.90;;;;;;5130200;28;20122;-70
2022/03/24 06:07:53;;;;;;;19.38;12.27;;;3.20;99.90;;;;;;5112233;28;20039;-70
2022/03/24 06:10:19;;;;;;;21.92;14.13;;;3.30;99.90;;;;;;5111057;28;20050;-69
2022/03/24 06:12:47;;;;;;;20.80;12.60;;;3.50;99.90;;;;;;5094718;27;20039;-69
2022/03/24 06:15:13;;;;;;;20.55;13.00;;;3.50;99.90;;;;;;5114940;27;20055;-68
2022/03/24 06:17:39;;;;;;;24.40;15.82;;;3.60;99.90;;;;;;5116160;27;20397;-70
2022/03/24 06:20:09;;;;;;;22.55;14.05;;;3.60;99.90;;;;;;5110009;27;20123;-77
2022/03/24 06:22:52;;;;;;;18.58;12.15;;;3.70;99.90;;;;;;5113974;27;20195;-77
2022/03/24 06:25:18;;;;;;;17.08;10.77;;;3.80;99.90;;;;;;5134977;27;20089;-78
2022/03/24 06:27:44;;;;;;;14.68;9.15;;;3.90;99.90;;;;;;5096052;27;20039;-69
2022/03/24 06:30:11;;;;;;;14.27;8.45;;;3.90;99.90;;;;;;5108160;27;20407;-69
2022/03/24 06:32:37;;;;;;;14.27;9.32;;;4.00;99.90;;;;;;5113267;27;20042;-69
2022/03/24 06:35:03;;;;;;;11.73;8.30;;;4.00;99.90;;;;;;5115257;27;20042;-69
2022/03/24 06:37:29;;;;;;;11.68;7.63;;;4.20;99.90;;;;;;5114837;27;20127;-69
2022/03/24 06:39:55;;;;;;;11.43;7.60;;;4.30;99.90;;;;;;5080917;27;20076;-69
2022/03/24 06:42:23;;;;;;;10.93;7.38;;;4.40;99.90;;;;;;5094976;28;20071;-69
2022/03/24 06:44:49;;;;;;;12.50;9.07;;;4.60;99.90;;;;;;5110014;27;20043;-76
2022/03/24 06:47:15;;;;;;;15.20;10.88;;;4.80;99.90;;;;;;5081881;27;20055;-70
2022/03/24 06:49:41;;;;;;;13.15;8.68;;;4.90;99.90;;;;;;5113681;27;20047;-76
2022/03/24 06:52:07;;;;;;;11.40;7.68;;;5.00;99.90;;;;;;5125867;27;20055;-75
2022/03/24 06:54:38;;;;;;;10.65;7.07;;;5.10;99.90;;;;;;5110831;27;20049;-76
2022/03/24 06:57:04;;;;;;;9.27;6.50;;;5.20;99.90;;;;;;5133425;27;20051;-71
2022/03/24 06:59:30;;;;;;;9.40;6.25;;;5.30;99.90;;;;;;5115435;27;20042;-70
2022/03/24 07:01:56;;;;;;;9.23;6.18;;;5.40;99.90;;;;;;5110172;28;20098;-70
2022/03/24 07:04:23;;;;;;;7.95;5.50;;;5.50;99.90;;;;;;5107927;27;20047;-70
2022/03/24 07:06:49;;;;;;;9.82;6.72;;;5.70;99.90;;;;;;5125854;27;20035;-77
2022/03/24 07:09:14;;;;;;;10.17;6.87;;;6.00;99.90;;;;;;5108291;27;20045;-69
2022/03/24 07:11:40;;;;;;;11.73;7.93;;;6.40;99.90;;;;;;5093177;27;20320;-70
2022/03/24 07:14:06;;;;;;;11.88;8.10;;;6.80;99.90;;;;;;5114392;27;20103;-70
2022/03/24 07:16:31;;;;;;;12.75;9.75;;;7.10;99.90;;;;;;5094467;27;20039;-69
2022/03/24 07:18:57;;;;;;;22.67;15.43;;;7.30;99.90;;;;;;5114468;27;20182;-69
2022/03/24 07:21:23;;;;;;;23.05;16.35;;;7.50;99.90;;;;;;5097342;27;20143;-70
2022/03/24 07:23:48;;;;;;;23.42;16.58;;;7.80;99.90;;;;;;5094378;28;20147;-71
2022/03/24 07:26:14;;;;;;;31.30;23.52;;;8.00;99.90;;;;;;5113538;27;20039;-70
2022/03/24 07:28:40;;;;;;;28.35;20.98;;;8.10;99.90;;;;;;5113806;27;20122;-70
2022/03/24 07:31:16;;;;;;;30.80;22.08;;;8.20;99.90;;;;;;5114054;27;20117;-70
2022/03/24 07:33:43;;;;;;;37.25;26.90;;;8.30;99.90;;;;;;5089169;27;20122;-70
2022/03/24 07:36:08;;;;;;;34.38;25.92;;;8.40;99.90;;;;;;5132887;27;20039;-70
2022/03/24 07:38:34;;;;;;;33.40;24.30;;;8.60;99.90;;;;;;5096866;27;20126;-69
2022/03/24 07:41:00;;;;;;;30.33;22.17;;;8.80;99.90;;;;;;5112156;27;20043;-69
2022/03/24 07:43:26;;;;;;;34.38;25.02;;;8.90;99.90;;;;;;5113915;27;20107;-75
2022/03/24 07:45:53;;;;;;;38.63;27.98;;;8.80;99.90;;;;;;5097699;27;20068;-75
2022/03/24 07:48:25;;;;;;;37.88;29.00;;;8.80;99.90;;;;;;5092790;27;20054;-75
2022/03/24 07:50:53;;;;;;;37.88;29.42;;;8.80;99.90;;;;;;5110113;27;20055;-75
2022/03/24 07:53:29;;;;;;;33.90;25.15;;;8.80;99.90;;;;;;5111413;27;20047;-76
2022/03/24 07:55:59;;;;;;;35.50;26.10;;;8.90;99.90;;;;;;5096993;27;20382;-75
2022/03/24 07:58:25;;;;;;;34.40;24.63;;;9.00;99.90;;;;;;5110260;27;20058;-75
2022/03/24 08:00:51;;;;;;;41.55;30.27;;;9.10;99.90;;;;;;5110933;27;20175;-69
2022/03/24 08:03:19;;;;;;;40.15;29.40;;;9.20;99.90;;;;;;5112038;27;20440;-75
2022/03/24 08:05:46;;;;;;;40.72;31.27;;;9.30;99.90;;;;;;5108859;28;20386;-76
2022/03/24 08:08:14;;;;;;;41.90;31.45;;;9.40;99.90;;;;;;5108970;27;20085;-76
2022/03/24 08:10:46;;;;;;;42.67;33.17;;;9.40;99.90;;;;;;5094096;28;20039;-75
2022/03/24 08:13:15;;;;;;;44.53;32.78;;;9.40;99.90;;;;;;5090962;27;20116;-76
2022/03/24 08:15:41;;;;;;;40.63;30.63;;;9.50;99.90;;;;;;5113420;27;20039;-77
2022/03/24 08:18:09;;;;;;;38.35;27.95;;;9.60;99.90;;;;;;5114018;27;20044;-76
2022/03/24 08:20:37;;;;;;;35.58;27.15;;;9.70;99.90;;;;;;5111158;27;20054;-76
2022/03/24 08:23:08;;;;;;;36.65;27.98;;;9.90;99.90;;;;;;5113899;27;20043;-75
2022/03/24 08:25:35;;;;;;;43.08;32.03;;;9.90;99.90;;;;;;5097441;27;20084;-76
2022/03/24 08:28:00;;;;;;;;;;;10.10;99.90;;;;;;5114614;27;20945;-75
2022/03/24 08:30:26;;;;;;;40.47;32.03;;;10.20;99.90;;;;;;5114109;27;19919;-75
2022/03/24 08:32:52;;;;;;;38.80;29.98;;;10.10;99.90;;;;;;5097204;27;20379;-77
2022/03/24 08:35:18;;;;;;;47.80;36.33;;;10.20;99.90;;;;;;5113902;27;20043;-75
2022/03/24 08:37:44;;;;;;;49.90;37.35;;;10.30;99.90;;;;;;5113517;27;20103;-75
2022/03/24 08:40:10;;;;;;;47.42;36.80;;;10.30;99.90;;;;;;5106159;27;20083;-75
2022/03/24 08:42:41;;;;;;;42.75;32.67;;;10.40;99.90;;;;;;5114075;27;20179;-77
2022/03/24 08:45:09;;;;;;;41.00;31.55;;;10.60;99.90;;;;;;5096668;27;20049;-70
2022/03/24 08:47:36;;;;;;;39.42;30.33;;;10.70;99.90;;;;;;5112735;27;20486;-70
2022/03/24 08:50:05;;;;;;;41.50;32.15;;;10.80;99.90;;;;;;5112575;27;20035;-68
2022/03/24 08:52:31;;;;;;;39.30;31.67;;;10.90;99.90;;;;;;5113408;27;20486;-69
2022/03/24 08:54:57;;;;;;;39.45;30.48;;;11.10;99.90;;;;;;5112783;27;20035;-69
2022/03/24 08:57:26;;;;;;;37.08;28.98;;;11.20;99.90;;;;;;5113020;27;20043;-69
2022/03/24 09:00:01;;;;;;;40.83;30.83;;;11.20;99.90;;;;;;5112639;27;20035;-69
2022/03/24 09:02:27;;;;;;;36.05;28.85;;;11.30;99.90;;;;;;5106305;27;20075;-68
2022/03/24 09:04:54;;;;;;;;;;;11.50;99.90;;;;;;5108992;27;20031;-69
2022/03/24 09:07:20;;;;;;;33.08;25.85;;;11.60;99.90;;;;;;5131545;27;19973;-68
2022/03/24 09:09:46;;;;;;;37.40;28.55;;;11.70;99.90;;;;;;5130812;27;20067;-68
2022/03/24 09:12:12;;;;;;;34.13;26.23;;;11.70;99.90;;;;;;5131285;27;20478;-68
2022/03/24 09:14:40;;;;;;;35.40;28.40;;;11.90;99.90;;;;;;5112734;27;20146;-69
2022/03/24 09:17:06;;;;;;;36.85;28.35;;;11.90;99.90;;;;;;5111049;28;20070;-69
2022/03/24 09:19:33;;;;;;;34.42;27.52;;;12.00;99.90;;;;;;5110439;27;20068;-69
2022/03/24 09:22:08;;;;;;;;;;;12.10;99.90;;;;;;5096154;27;20536;-69
2022/03/24 09:24:35;;;;;;;37.17;27.77;;;12.30;99.90;;;;;;5112098;27;20438;-69
2022/03/24 09:27:02;;;;;;;34.50;27.08;;;12.40;99.90;;;;;;5112882;27;20076;-69
2022/03/24 09:29:28;;;;;;;29.85;23.20;;;12.50;99.90;;;;;;5095873;27;20042;-69
2022/03/24 09:31:54;;;;;;;32.28;24.60;;;12.70;99.90;;;;;;5095694;27;20031;-69
2022/03/24 09:34:20;;;;;;;35.50;27.30;;;12.80;99.90;;;;;;5112852;28;21594;-69
2022/03/24 09:36:45;;;;;;;33.05;25.15;;;12.80;99.90;;;;;;5112073;27;20073;-69
2022/03/24 09:39:11;;;;;;;37.30;29.10;;;13.00;99.90;;;;;;5112305;28;20042;-71
2022/03/24 09:41:40;;;;;;;39.50;29.38;;;13.10;99.90;;;;;;5091868;28;20059;-70
2022/03/24 09:44:07;;;;;;;39.40;31.27;;;13.20;99.90;;;;;;5127607;28;20451;-70
2022/03/24 09:46:33;;;;;;;38.03;29.55;;;13.40;99.90;;;;;;5092202;28;20083;-70
2022/03/24 09:48:59;;;;;;;36.67;28.52;;;13.50;99.90;;;;;;5110781;27;20039;-70
2022/03/24 09:51:26;;;;;;;37.53;29.35;;;13.60;99.90;;;;;;5082077;27;20043;-70
2022/03/24 09:53:53;;;;;;;41.22;31.60;;;13.80;99.90;;;;;;5116874;27;20035;-70
2022/03/24 09:56:19;;;;;;;39.08;30.90;;;13.80;99.90;;;;;;5116543;27;20043;-70
2022/03/24 09:58:48;;;;;;;44.53;33.33;;;13.80;99.90;;;;;;5082642;27;20043;-70
2022/03/24 10:01:15;;;;;;;41.60;31.10;;;13.80;99.90;;;;;;5115933;27;20036;-69
2022/03/24 10:04:05;;;;;;;38.97;30.88;;;13.90;99.90;;;;;;5116350;27;20051;-69
2022/03/24 10:06:32;;;;;;;36.58;27.88;;;14.00;99.90;;;;;;5116716;27;20035;-69
2022/03/24 10:08:59;;;;;;;34.55;27.80;;;14.10;99.90;;;;;;5116389;27;20046;-69
2022/03/24 10:11:26;;;;;;;37.28;28.55;;;14.20;99.90;;;;;;5099412;27;20163;-71
2022/03/24 10:13:55;;;;;;;39.08;30.98;;;14.30;99.90;;;;;;5099171;27;20035;-70
2022/03/24 10:16:33;;;;;;;40.47;31.85;;;14.40;99.90;;;;;;5116075;27;20047;-69
2022/03/24 10:19:07;;;;;;;36.45;28.23;;;14.60;99.90;;;;;;5116002;27;20061;-69
2022/03/24 10:21:36;;;;;;;32.70;25.73;;;14.70;99.90;;;;;;5115898;27;20075;-69
2022/03/24 10:24:28;;;;;;;37.35;29.90;;;14.80;99.90;;;;;;5098641;27;20043;-69
2022/03/24 10:27:02;;;;;;;31.55;23.92;;;14.80;99.50;;;;;;5108873;27;20513;-69
2022/03/24 10:29:29;;;;;;;26.42;20.98;;;15.10;99.00;;;;;;5116337;27;20050;-69
2022/03/24 10:32:11;;;;;;;35.75;27.70;;;15.30;99.90;;;;;;5115331;27;20497;-69
2022/03/24 10:34:42;;;;;;;38.58;29.00;;;15.50;99.90;;;;;;5115727;27;20252;-68
2022/03/24 10:37:12;;;;;;;31.70;24.00;;;15.50;97.60;;;;;;5115343;27;20039;-70
2022/03/24 10:39:53;;;;;;;39.58;30.85;;;15.70;97.30;;;;;;5115523;27;20539;-68
2022/03/24 10:42:20;;;;;;;37.03;29.02;;;15.80;97.40;;;;;;5115489;27;20502;-68
2022/03/24 10:45:15;;;;;;;35.17;27.98;;;16.10;98.00;;;;;;5089764;27;20043;-69
2022/03/24 10:47:55;;;;;;;32.97;26.73;;;16.10;96.60;;;;;;5115305;27;20133;-68
2022/03/24 10:50:32;;;;;;;34.85;28.17;;;16.20;96.10;;;;;;5114953;27;20115;-69
2022/03/24 10:53:04;;;;;;;30.70;24.60;;;16.20;95.40;;;;;;5115825;27;20066;-69
2022/03/24 10:55:39;;;;;;;32.28;24.90;;;16.50;96.00;;;;;;5114914;27;20047;-69
2022/03/24 10:58:07;;;;;;;32.17;24.25;;;16.70;94.90;;;;;;5133541;27;20519;-70
2022/03/24 11:00:33;;;;;;;31.45;23.45;;;16.80;94.20;;;;;;5113523;27;20493;-69
2022/03/24 11:03:02;;;;;;;31.35;24.95;;;16.90;94.50;;;;;;5107378;27;20107;-69
2022/03/24 11:05:27;;;;;;;25.88;21.77;;;17.00;94.10;;;;;;5107824;27;20039;-69
2022/03/24 11:07:54;;;;;;;34.72;27.65;;;17.30;94.60;;;;;;5098169;27;20054;-69
2022/03/24 11:10:22;;;;;;;35.00;27.02;;;17.30;93.30;;;;;;5133608;27;20110;-69
2022/03/24 11:12:54;;;;;;;33.58;26.10;;;17.40;93.40;;;;;;5115111;27;20074;-70
2022/03/24 11:15:20;;;;;;;31.95;24.50;;;17.50;92.50;;;;;;5114635;27;20457;-70
2022/03/24 11:17:47;;;;;;;28.58;23.35;;;17.40;91.40;;;;;;5114740;27;20046;-69
2022/03/24 11:20:13;;;;;;;25.08;21.00;;;17.50;92.80;;;;;;5114858;27;20118;-69
2022/03/24 11:22:53;;;;;;;29.90;23.55;;;17.80;92.50;;;;;;5114696;27;20565;-69
2022/03/24 11:25:20;;;;;;;29.48;23.52;;;17.90;91.40;;;;;;5114670;27;20159;-69
2022/03/24 11:27:48;;;;;;;28.00;22.95;;;17.90;91.30;;;;;;5133236;27;20034;-69
2022/03/24 11:30:15;;;;;;;27.40;22.45;;;17.90;91.00;;;;;;5114711;27;20031;-70
2022/03/24 11:32:44;;;;;;;32.30;25.45;;;18.00;89.40;;;;;;5132955;27;20441;-70
2022/03/24 11:35:11;;;;;;;28.80;22.92;;;17.80;88.80;;;;;;5114454;27;20131;-70
2022/03/24 11:37:37;;;;;;;30.30;23.05;;;18.00;89.60;;;;;;5132792;27;20093;-70
2022/03/24 11:40:08;;;;;;;33.85;25.23;;;18.10;89.20;;;;;;5114469;27;20165;-70
2022/03/24 11:42:44;;;;;;;32.85;25.77;;;17.90;88.20;;;;;;5114718;27;20114;-70
2022/03/24 11:45:27;;;;;;;36.65;28.25;;;17.90;88.30;;;;;;5114348;27;20050;-70
2022/03/24 11:48:01;;;;;;;31.10;24.42;;;17.70;88.10;;;;;;5114200;27;20039;-70
2022/03/24 11:50:41;;;;;;;28.80;24.05;;;17.90;89.40;;;;;;5114148;27;20047;-69
2022/03/24 11:53:27;;;;;;;27.40;22.42;;;18.00;88.90;;;;;;5097238;27;20098;-69
2022/03/24 11:55:59;;;;;;;32.17;26.60;;;18.20;89.40;;;;;;5114427;27;20490;-69
2022/03/24 11:58:25;;;;;;;34.42;28.38;;;18.10;90.00;;;;;;5097094;27;20039;-70
2022/03/24 12:00:51;;;;;;;35.90;26.92;;;17.80;89.60;;;;;;5132183;27;20043;-69
2022/03/24 12:03:36;;;;;;;;;;;17.80;90.30;;;;;;5114181;27;20051;-70
2022/03/24 12:06:01;;;;;;;35.72;27.25;;;17.60;89.00;;;;;;5096527;27;20127;-70
2022/03/24 12:08:28;;;;;;;31.90;25.98;;;17.60;89.40;;;;;;5093326;28;20081;-69
2022/03/24 12:10:55;;;;;;;34.85;26.52;;;17.60;89.70;;;;;;5111840;27;20053;-77
2022/03/24 12:13:21;;;;;;;31.23;24.63;;;17.70;89.00;;;;;;5097402;27;20043;-76
2022/03/24 12:16:21;;;;;;;27.65;22.13;;;17.70;86.80;;;;;;5113773;27;20043;-77
2022/03/24 12:18:47;;;;;;;32.35;25.70;;;18.00;85.70;;;;;;5113863;27;20039;-77
2022/03/24 12:21:27;;;;;;;;;;;18.00;85.30;;;;;;5114580;27;20035;-76
2022/03/24 12:24:01;;;;;;;33.58;24.25;;;18.20;84.80;;;;;;5113267;27;19954;-77
2022/03/24 12:26:31;;;;;;;23.58;19.70;;;18.30;83.10;;;;;;5114330;27;20027;-75
2022/03/24 12:29:10;;;;;;;20.75;17.38;;;18.50;80.20;;;;;;5132216;27;20066;-75
2022/03/24 12:31:54;;;;;;;24.58;20.58;;;18.90;82.30;;;;;;5113980;27;20466;-77
2022/03/24 12:34:21;;;;;;;31.38;23.23;;;18.80;80.20;;;;;;5104970;28;20039;-77
2022/03/24 12:36:47;;;;;;;27.63;21.90;;;18.60;79.00;;;;;;5110109;27;20035;-77
2022/03/24 12:39:28;;;;;;;;;;;18.50;77.20;;;;;;5113819;27;20042;-76
2022/03/24 12:42:15;;;;;;;33.63;24.27;;;18.40;77.50;;;;;;5113003;27;19930;-69
2022/03/24 12:44:58;;;;;;;25.63;21.08;;;18.50;78.40;;;;;;5112330;27;20092;-69
2022/03/24 12:47:41;;;;;;;27.67;21.77;;;18.50;79.50;;;;;;5106091;27;20049;-69
2022/03/24 12:50:16;;;;;;;22.88;18.05;;;18.60;78.70;;;;;;5111262;27;20182;-70
2022/03/24 12:52:48;;;;;;;31.25;23.63;;;18.90;76.40;;;;;;5095965;27;20043;-70
2022/03/24 12:55:41;;;;;;;28.20;21.23;;;18.80;76.80;;;;;;5113020;27;20063;-70